Time;durP1;ratioP1;P1;durP2;ratioP2;P2;SDS_P1;SDS_P2;PMS_P1;PMS_P2;Temp;Humidity;BMP_temperature;BMP_pressure;BME280_temperature;BME280_humidity;BME280_pressure;Samples;Min_cycle;Max_cycle;Signal;HPM_P1;HPM_P2
2022/06/23 00:02:27;;;;;;;10.93;3.60;;;;;;;16.85;59.84;101034.59;5050271;28;20323;-88
2022/06/23 00:04:57;;;;;;;5.03;3.58;;;;;;;16.76;60.33;101043.38;5050904;28;20098;-88
2022/06/23 00:07:27;;;;;;;5.13;3.08;;;;;;;16.81;60.45;101032.47;5050324;28;20505;-88
2022/06/23 00:09:54;;;;;;;6.75;3.75;;;;;;;16.70;60.93;101036.44;5050963;28;20049;-89
2022/06/23 00:12:40;;;;;;;9.65;3.70;;;;;;;16.72;59.40;101038.84;5050089;28;20028;-88
2022/06/23 00:15:06;;;;;;;5.60;3.35;;;;;;;16.73;60.86;101041.28;5050509;28;20115;-90
2022/06/23 00:17:40;;;;;;;5.53;3.83;;;;;;;16.70;61.76;101036.44;5051228;28;20421;-88
2022/06/23 00:20:11;;;;;;;9.00;3.90;;;;;;;16.64;62.67;101035.72;5050451;28;20029;-87
2022/06/23 00:22:39;;;;;;;8.32;4.00;;;;;;;16.62;62.97;101028.97;5052235;28;20041;-88
2022/06/23 00:25:06;;;;;;;12.35;3.70;;;;;;;16.54;63.07;101016.13;5050588;28;20040;-89
2022/06/23 00:27:37;;;;;;;7.43;4.22;;;;;;;16.54;63.60;101021.53;5050104;28;20033;-88
2022/06/23 00:30:17;;;;;;;7.57;4.33;;;;;;;16.50;64.34;101032.94;5050004;28;20031;-88
2022/06/23 00:32:42;;;;;;;13.33;4.60;;;;;;;16.44;65.35;101027.91;5049969;28;20311;-88
2022/06/23 00:35:14;;;;;;;6.60;4.95;;;;;;;16.44;65.64;101044.13;5032395;28;20106;-88
2022/06/23 00:37:46;;;;;;;9.13;4.57;;;;;;;16.33;65.55;101046.16;5050532;28;20021;-88
2022/06/23 00:40:14;;;;;;;9.47;4.70;;;;;;;16.28;66.86;101033.53;5049618;28;20283;-87
2022/06/23 00:42:49;;;;;;;8.10;4.85;;;;;;;16.31;66.66;101035.66;5049936;28;20104;-88
2022/06/23 00:45:29;;;;;;;8.93;4.93;;;;;;;16.32;65.28;101045.38;5050044;28;20033;-89
2022/06/23 00:48:14;;;;;;;7.05;4.85;;;;;;;16.29;66.17;101047.84;5050068;28;20126;-87
2022/06/23 00:50:47;;;;;;;11.63;5.57;;;;;;;16.22;66.76;101033.88;5049437;28;20054;-88
2022/06/23 00:53:12;;;;;;;8.50;5.25;;;;;;;16.16;67.66;101033.94;5050115;28;20106;-88
2022/06/23 00:58:52;;;;;;;7.57;4.80;;;;;;;15.99;69.01;101014.72;5009337;28;20399;-88
2022/06/23 01:01:24;;;;;;;13.05;5.47;;;;;;;16.03;69.62;101013.03;5008204;28;20548;-88
2022/06/23 01:03:54;;;;;;;10.77;5.40;;;;;;;15.98;68.94;101015.81;5009329;28;20411;-88
2022/06/23 01:06:29;;;;;;;8.82;5.50;;;;;;;15.90;71.47;101020.75;5010064;28;20438;-87
2022/06/23 01:09:01;;;;;;;11.57;5.70;;;;;;;15.89;70.58;101019.13;5011996;28;20129;-88
2022/06/23 01:11:45;;;;;;;9.70;5.55;;;;;;;15.85;69.60;101011.88;5011986;28;20030;-88
2022/06/23 01:14:19;;;;;;;7.87;5.90;;;;;;;15.83;72.88;101009.47;5012234;28;20040;-88
2022/06/23 01:16:55;;;;;;;11.03;6.17;;;;;;;15.80;72.36;101004.66;5012420;28;20775;-88
2022/06/23 01:19:39;;;;;;;12.02;5.95;;;;;;;15.84;72.48;101010.25;5013585;28;20485;-88
2022/06/23 01:22:14;;;;;;;10.43;5.97;;;;;;;15.83;73.76;101014.88;5012849;28;20161;-87
2022/06/23 01:25:15;;;;;;;11.48;5.82;;;;;;;15.81;71.46;101027.06;5021787;28;20014;-86
2022/06/23 01:28:03;;;;;;;13.25;6.50;;;;;;;15.74;71.14;101022.00;5009705;28;20101;-88
2022/06/23 01:30:38;;;;;;;9.90;5.80;;;;;;;15.72;73.15;101018.78;5007825;28;20033;-88
2022/06/23 01:33:16;;;;;;;11.60;6.05;;;;;;;15.70;73.51;101019.06;5006411;28;20040;-87
2022/06/23 01:35:55;;;;;;;12.80;6.22;;;;;;;15.60;73.69;101008.41;5007982;28;20041;-87
2022/06/23 01:38:47;;;;;;;11.98;5.72;;;;;;;15.67;72.90;101014.25;5007760;28;20033;-87
2022/06/23 01:41:29;;;;;;;10.23;6.27;;;;;;;15.68;73.58;101009.66;5007589;28;20361;-88
2022/06/23 01:44:06;;;;;;;12.77;7.03;;;;;;;15.59;76.14;101010.28;5007622;28;20977;-87
2022/06/23 01:46:42;;;;;;;13.10;6.57;;;;;;;15.56;75.50;101018.94;5007492;28;20037;-88
2022/06/23 01:49:20;;;;;;;14.40;6.65;;;;;;;15.57;75.52;101022.47;5007411;28;20501;-88
2022/06/23 01:52:03;;;;;;;9.68;6.40;;;;;;;15.51;75.20;101024.44;5006863;28;20041;-87
2022/06/23 01:54:32;;;;;;;10.50;6.35;;;;;;;15.47;76.06;101023.38;5007562;28;20030;-88
2022/06/23 01:57:13;;;;;;;11.60;6.47;;;;;;;15.51;75.94;101029.00;5012971;28;20504;-88
2022/06/23 01:59:54;;;;;;;10.32;6.55;;;;;;;15.45;76.55;101023.66;5026933;28;20025;-88
2022/06/23 02:02:24;;;;;;;13.63;6.75;;;;;;;15.44;77.05;101019.34;5026209;28;20385;-88
2022/06/23 02:05:08;;;;;;;11.68;7.03;;;;;;;15.41;75.56;101017.25;5027117;28;20109;-87
2022/06/23 02:07:42;;;;;;;14.00;7.70;;;;;;;15.41;78.19;101011.00;5026761;28;20036;-88
2022/06/23 02:10:22;;;;;;;11.10;7.10;;;;;;;15.39;77.18;101015.91;5012580;28;20369;-88
2022/06/23 02:13:01;;;;;;;12.10;7.18;;;;;;;15.39;78.55;101015.91;5013604;28;20117;-88
2022/06/23 02:15:34;;;;;;;12.52;6.55;;;;;;;15.37;78.44;101012.66;5013795;28;20025;-88
2022/06/23 02:18:22;;;;;;;12.25;7.10;;;;;;;15.39;78.07;101010.50;5013233;28;20552;-89
2022/06/23 02:21:04;;;;;;;10.43;6.93;;;;;;;15.37;77.78;101007.28;5013464;28;20053;-89
2022/06/23 02:23:44;;;;;;;14.65;7.03;;;;;;;15.40;76.88;101002.13;5013899;28;20105;-87
2022/06/23 02:26:33;;;;;;;13.30;7.35;;;;;;;15.34;78.85;101002.47;5014028;28;20105;-88
2022/06/23 02:29:24;;;;;;;14.13;7.63;;;;;;;15.28;77.25;100999.81;5014536;28;20049;-88
2022/06/23 02:32:03;;;;;;;14.23;7.03;;;;;;;15.32;78.17;101008.13;5025442;28;20026;-88
2022/06/23 02:34:35;;;;;;;15.10;7.67;;;;;;;15.28;79.44;101010.59;5013523;28;20036;-88
2022/06/23 02:37:38;;;;;;;12.67;7.30;;;;;;;15.25;77.73;101003.06;5013224;28;20296;-88
2022/06/23 02:40:04;;;;;;;13.57;7.18;;;;;;;15.20;78.85;101003.13;5013042;28;20030;-88
2022/06/23 02:42:37;;;;;;;13.30;7.53;;;;;;;15.13;79.79;100997.25;5011786;28;20501;-88
2022/06/23 02:45:11;;;;;;;11.90;7.38;;;;;;;15.20;79.38;101011.22;5012711;28;20075;-88
2022/06/23 02:47:53;;;;;;;13.73;7.60;;;;;;;15.27;79.79;101013.56;5013377;28;20112;-88
2022/06/23 02:50:37;;;;;;;9.52;7.03;;;;;;;15.33;78.98;101009.75;5013390;28;20029;-88
2022/06/23 02:53:19;;;;;;;15.65;7.35;;;;;;;15.37;78.40;101008.09;5013894;28;20030;-89
2022/06/23 02:56:22;;;;;;;10.65;7.05;;;;;;;15.32;77.24;100994.63;5014237;28;20069;-87
2022/06/23 02:59:05;;;;;;;15.97;6.73;;;;;;;15.32;78.16;101008.13;5013543;28;20060;-87
2022/06/23 03:01:41;;;;;;;12.73;7.60;;;;;;;15.28;79.61;101002.50;5012072;28;20284;-88
2022/06/23 03:04:23;;;;;;;12.35;7.28;;;;;;;15.32;78.55;100997.34;5013476;28;20026;-87
2022/06/23 03:07:06;;;;;;;10.98;6.95;;;;;;;15.29;78.25;100977.13;5012328;28;20097;-87
2022/06/23 03:09:43;;;;;;;15.40;7.53;;;;;;;15.26;78.59;100990.38;5013547;28;20133;-87
2022/06/23 03:12:20;;;;;;;12.00;6.97;;;;;;;15.23;78.55;100983.66;5012752;28;20022;-87
2022/06/23 03:14:56;;;;;;;14.07;7.70;;;;;;;15.21;78.00;100983.13;5013395;28;20042;-87
2022/06/23 03:17:34;;;;;;;13.23;7.50;;;;;;;15.18;78.67;100982.91;5013483;28;20025;-87
2022/06/23 03:20:09;;;;;;;11.70;7.53;;;;;;;15.12;78.58;100976.75;5012337;28;20037;-87
2022/06/23 03:22:55;;;;;;;12.98;7.13;;;;;;;15.08;79.16;100975.72;5012756;28;20026;-87
2022/06/23 03:25:33;;;;;;;12.23;6.93;;;;;;;15.05;77.84;100970.88;5013214;28;20186;-87
2022/06/23 03:28:09;;;;;;;13.27;7.83;;;;;;;14.99;79.03;100979.00;5012882;28;20708;-87
2022/06/23 03:30:50;;;;;;;15.40;7.10;;;;;;;14.95;77.72;100969.09;5011979;28;20049;-88
2022/06/23 03:33:25;;;;;;;14.02;7.38;;;;;;;14.95;78.82;100975.28;5012686;28;20029;-88
2022/06/23 03:35:57;;;;;;;11.68;7.43;;;;;;;14.93;79.33;100980.16;5012283;28;20052;-88
2022/06/23 03:41:38;;;;;;;13.63;7.82;;;;;;;14.81;79.75;100966.22;5012575;28;20096;-88
2022/06/23 03:44:12;;;;;;;15.00;7.82;;;;;;;14.85;79.53;100986.16;5012525;28;20035;-88
2022/06/23 03:47:01;;;;;;;11.10;6.90;;;;;;;14.88;78.04;100985.59;5012113;28;20030;-88
2022/06/23 03:49:50;;;;;;;15.13;7.32;;;;;;;14.92;77.91;100986.66;5011807;28;20116;-88
2022/06/23 03:52:48;;;;;;;13.50;7.17;;;;;;;14.92;77.73;100994.75;5011589;28;20033;-88
2022/06/23 03:55:21;;;;;;;16.87;7.20;;;;;;;14.93;78.32;100992.84;5004639;28;20292;-88
2022/06/23 03:57:55;;;;;;;15.73;7.80;;;;;;;14.95;78.21;100988.78;5011676;28;20097;-88
2022/06/23 04:00:24;;;;;;;14.27;8.27;;;;;;;14.94;79.47;100995.28;5011242;28;20083;-88
2022/06/23 04:03:19;;;;;;;10.63;7.20;;;;;;;14.97;77.85;100986.59;5012019;28;20105;-88
2022/06/23 04:05:56;;;;;;;11.27;7.10;;;;;;;15.01;77.85;100994.13;5011461;28;20057;-87
2022/06/23 04:08:40;;;;;;;13.15;7.18;;;;;;;15.01;77.72;100989.53;5011394;28;20375;-88
2022/06/23 04:14:02;;;;;;;10.98;7.22;;;;;;;15.08;77.12;100991.91;5011406;28;20152;-89
2022/06/23 04:16:32;;;;;;;10.68;6.68;;;;;;;15.12;77.41;100992.94;5011507;28;20033;-89
2022/06/23 04:18:58;;;;;;;15.17;7.00;;;;;;;15.08;77.20;100984.59;5011246;28;20032;-89
2022/06/23 04:21:27;;;;;;;13.10;7.20;;;;;;;15.13;76.43;100987.25;5009619;28;20277;-89
2022/06/23 04:23:57;;;;;;;9.82;6.85;;;;;;;15.28;75.56;100985.50;5010128;28;20026;-89
2022/06/23 04:26:30;;;;;;;13.10;7.22;;;;;;;15.41;75.21;100967.81;5011289;28;20128;-89
2022/06/23 04:28:59;;;;;;;14.40;7.30;;;;;;;15.72;74.18;100978.25;5011344;28;20025;-88
2022/06/23 04:31:34;;;;;;;14.15;6.78;;;;;;;15.73;73.76;100977.16;5010616;28;20026;-89
2022/06/23 04:34:01;;;;;;;13.67;7.13;;;;;;;15.72;73.89;100970.16;5011128;28;20061;-89
2022/06/23 04:36:32;;;;;;;16.40;8.17;;;;;;;15.69;74.26;100976.94;5011423;28;20332;-89
2022/06/23 04:39:16;;;;;;;12.27;6.97;;;;;;;15.73;73.59;100974.47;5012146;28;20375;-89
2022/06/23 04:41:46;;;;;;;12.18;7.10;;;;;;;15.68;73.87;100986.13;5011367;28;20065;-89
2022/06/23 04:44:19;;;;;;;10.75;7.07;;;;;;;15.77;73.29;100989.00;5011049;28;20104;-89
2022/06/23 04:46:50;;;;;;;13.27;7.30;;;;;;;16.09;72.44;100982.13;5011099;28;20045;-89
2022/06/23 04:49:23;;;;;;;15.20;6.90;;;;;;;16.56;70.70;100979.56;5011190;28;20113;-89
2022/06/23 04:52:06;;;;;;;12.25;6.40;;;;;;;17.66;67.42;100993.66;5010780;28;20057;-88
2022/06/23 04:54:41;;;;;;;15.35;6.57;;;;;;;18.81;62.14;100987.31;5011235;28;20025;-89
2022/06/23 04:57:21;;;;;;;10.27;6.30;;;;;;;19.73;61.10;100996.06;5011004;28;20482;-89
2022/06/23 04:59:52;;;;;;;8.50;5.70;;;;;;;20.40;57.47;100996.78;5011431;28;20033;-90
2022/06/23 05:02:41;;;;;;;7.90;5.30;;;;;;;21.04;57.16;100998.03;5011333;28;20305;-90
2022/06/23 05:05:23;;;;;;;7.30;5.65;;;;;;;21.70;53.81;100996.78;5014671;28;20030;-90
2022/06/23 05:07:55;;;;;;;8.95;5.60;;;;;;;22.00;51.91;100982.34;5022595;28;20026;-90
2022/06/23 05:10:28;;;;;;;7.18;5.60;;;;;;;22.29;50.82;100988.84;5012273;28;20132;-89
2022/06/23 05:12:57;;;;;;;12.48;5.63;;;;;;;22.42;49.18;100993.28;5011220;28;20070;-89
2022/06/23 05:15:34;;;;;;;10.27;5.43;;;;;;;22.71;49.69;101001.69;5013642;28;20097;-89
2022/06/23 05:18:05;;;;;;;10.00;5.78;;;;;;;23.05;47.98;101000.50;5011616;28;20033;-89
2022/06/23 05:20:40;;;;;;;8.98;5.32;;;;;;;23.46;46.53;101002.63;5010309;28;20132;-90
2022/06/23 05:23:13;;;;;;;11.52;5.85;;;;;;;23.41;45.71;101007.19;5011143;28;20064;-89
2022/06/23 05:25:46;;;;;;;8.50;5.00;;;;;;;23.58;46.24;101002.63;5011546;28;20040;-89
2022/06/23 05:28:17;;;;;;;7.23;5.00;;;;;;;23.69;45.88;101009.22;5011055;28;20609;-89
2022/06/23 05:30:55;;;;;;;7.40;4.78;;;;;;;23.68;45.49;101002.16;5010072;28;20022;-89
2022/06/23 05:33:36;;;;;;;8.30;5.25;;;;;;;23.79;45.28;100990.75;5010536;28;20021;-89
2022/06/23 05:36:16;;;;;;;11.68;5.30;;;;;;;23.96;44.55;100995.16;5010583;28;20026;-90
2022/06/23 05:38:45;;;;;;;11.50;5.60;;;;;;;23.99;44.60;100989.81;5010566;28;20048;-91
2022/06/23 05:41:19;;;;;;;14.10;5.07;;;;;;;24.16;44.92;100993.44;5010259;28;20026;-91
2022/06/23 05:43:46;;;;;;;6.93;4.93;;;;;;;24.49;43.26;100986.91;5011204;28;20095;-91
2022/06/23 05:46:19;;;;;;;9.45;4.97;;;;;;;24.50;43.28;101002.19;5014110;28;20029;-91
2022/06/23 05:48:47;;;;;;;6.63;5.20;;;;;;;24.85;42.76;100993.38;5014309;28;20040;-89
2022/06/23 05:51:24;;;;;;;11.83;5.03;;;;;;;25.10;43.12;100994.03;5013425;28;20022;-90
2022/06/23 05:54:08;;;;;;;12.13;5.47;;;;;;;25.04;42.99;100997.38;5014104;28;20339;-90
2022/06/23 05:56:44;;;;;;;8.77;5.00;;;;;;;24.94;42.43;100988.53;5013916;28;20029;-91
2022/06/23 05:59:20;;;;;;;6.78;4.95;;;;;;;24.75;43.02;100991.16;5014164;28;20032;-90
2022/06/23 06:01:53;;;;;;;9.43;5.38;;;;;;;24.40;43.32;100997.22;5015160;28;20030;-89
2022/06/23 06:04:26;;;;;;;7.28;5.53;;;;;;;24.22;43.95;100997.53;5015639;28;20104;-90
2022/06/23 06:06:54;;;;;;;8.23;5.70;;;;;;;24.03;43.42;101001.69;5016130;28;20041;-90
2022/06/23 06:09:36;;;;;;;10.48;5.55;;;;;;;23.96;45.14;100998.69;5014399;28;20109;-89
2022/06/23 06:12:08;;;;;;;6.28;5.10;;;;;;;23.93;44.84;101002.13;5013291;28;20148;-89
2022/06/23 06:14:41;;;;;;;11.00;5.78;;;;;;;23.68;45.03;101002.16;5014490;28;20034;-91
2022/06/23 06:17:07;;;;;;;10.33;5.40;;;;;;;23.26;45.66;100995.00;5013589;28;20068;-90
2022/06/23 06:19:34;;;;;;;9.97;5.77;;;;;;;23.05;46.72;100986.06;5014027;28;20339;-90
2022/06/23 06:22:17;;;;;;;13.20;6.10;;;;;;;23.09;47.79;100987.75;5013089;28;20029;-90
2022/06/23 06:24:48;;;;;;;11.93;6.15;;;;;;;22.88;47.49;100993.31;5014263;28;20112;-90
2022/06/23 06:27:13;;;;;;;13.90;5.95;;;;;;;22.86;48.58;100989.31;5012465;28;20026;-91
2022/06/23 06:29:43;;;;;;;11.67;6.57;;;;;;;22.58;49.28;100990.72;5014025;28;20036;-90
2022/06/23 06:32:33;;;;;;;13.30;5.97;;;;;;;22.45;50.34;100987.16;5013552;28;20057;-90
2022/06/23 06:35:14;;;;;;;10.25;6.03;;;;;;;22.52;49.86;100992.06;5013907;28;20059;-89
2022/06/23 06:37:44;;;;;;;11.10;5.63;;;;;;;22.59;49.69;100996.97;5013710;28;20030;-91
2022/06/23 06:40:11;;;;;;;9.85;6.53;;;;;;;22.43;50.46;100994.88;5013416;28;20033;-90
2022/06/23 06:42:42;;;;;;;9.02;5.78;;;;;;;22.63;50.46;100998.69;5013781;28;20030;-91
2022/06/23 06:45:11;;;;;;;6.60;5.38;;;;;;;22.72;51.06;100990.41;5012446;28;20029;-90
2022/06/23 06:47:38;;;;;;;11.05;6.40;;;;;;;22.58;51.46;101000.84;5015523;28;20034;-91
2022/06/23 06:50:28;;;;;;;9.98;6.18;;;;;;;22.53;51.13;101002.63;5014032;28;20085;-90
2022/06/23 06:52:56;;;;;;;11.27;6.37;;;;;;;22.53;51.00;100991.72;5012747;28;20110;-91
2022/06/23 06:55:33;;;;;;;11.67;6.27;;;;;;;22.76;50.96;100985.88;5013991;28;20288;-90
2022/06/23 06:58:22;;;;;;;13.00;5.85;;;;;;;22.92;50.96;100985.22;5014204;28;20132;-91
2022/06/23 07:00:53;;;;;;;12.05;6.10;;;;;;;22.96;50.75;100988.88;5013771;28;20083;-91
2022/06/23 07:03:23;;;;;;;12.43;5.30;;;;;;;23.06;51.05;100988.44;5013526;28;20094;-91
2022/06/23 07:05:57;;;;;;;9.98;5.55;;;;;;;23.28;51.20;100997.38;5013645;28;20018;-91
2022/06/23 07:08:43;;;;;;;9.90;6.45;;;;;;;23.10;50.88;100996.75;5013584;28;20128;-91
2022/06/23 07:11:21;;;;;;;10.57;6.22;;;;;;;23.29;51.05;100996.25;5012542;28;20017;-92
2022/06/23 07:14:03;;;;;;;10.25;5.57;;;;;;;23.55;50.93;101006.06;5013472;28;20088;-90
2022/06/23 07:16:37;;;;;;;11.82;6.13;;;;;;;23.66;50.57;101003.63;5012791;28;20022;-90
2022/06/23 07:19:14;;;;;;;11.93;6.13;;;;;;;23.68;50.68;101002.16;5012808;28;20378;-90
2022/06/23 07:22:04;;;;;;;8.93;6.43;;;;;;;23.78;50.41;100998.16;5012715;28;20293;-90
2022/06/23 07:24:44;;;;;;;12.32;5.80;;;;;;;23.83;51.17;100999.88;5013228;28;20046;-91
2022/06/23 07:27:25;;;;;;;9.27;5.20;;;;;;;23.99;50.70;101005.47;5012710;28;20049;-90
2022/06/23 07:29:55;;;;;;;14.10;6.28;;;;;;;24.07;50.23;100990.84;5013254;28;20084;-91
2022/06/23 07:32:37;;;;;;;11.00;5.50;;;;;;;24.28;49.78;100998.06;5012697;28;20033;-91
2022/06/23 07:35:16;;;;;;;14.07;6.20;;;;;;;24.38;49.96;100994.81;5012128;28;20545;-90
2022/06/23 07:37:48;;;;;;;8.95;6.43;;;;;;;24.52;49.63;100997.16;5014023;28;20032;-91
2022/06/23 07:40:18;;;;;;;11.40;5.90;;;;;;;24.58;49.55;100998.53;5012543;28;20097;-91
2022/06/23 07:42:52;;;;;;;8.32;5.72;;;;;;;24.77;50.20;100988.88;5012835;28;20033;-90
2022/06/23 07:45:24;;;;;;;12.13;6.23;;;;;;;24.76;51.05;100984.53;5012807;28;20036;-90
2022/06/23 07:47:51;;;;;;;9.60;5.77;;;;;;;24.70;51.33;100984.00;5012735;28;20684;-90
2022/06/23 07:50:17;;;;;;;10.70;5.93;;;;;;;24.86;49.90;100988.72;5012785;28;20058;-91
2022/06/23 07:52:44;;;;;;;12.60;5.75;;;;;;;25.01;49.64;100985.19;5020424;28;20030;-90
2022/06/23 07:55:18;;;;;;;9.70;5.97;;;;;;;25.16;50.17;100986.34;5025299;28;20026;-91
2022/06/23 07:57:46;;;;;;;11.50;6.30;;;;;;;25.33;49.41;100993.38;5035149;28;20045;-88
2022/06/23 08:00:19;;;;;;;10.52;5.50;;;;;;;25.52;50.69;100995.44;5018817;28;20052;-88
2022/06/23 08:03:01;;;;;;;14.45;5.90;;;;;;;25.75;51.21;100996.72;5036945;28;20009;-88
2022/06/23 08:05:43;;;;;;;12.38;5.60;;;;;;;25.98;50.12;100994.06;5036673;28;20030;-88
2022/06/23 08:08:24;;;;;;;11.60;5.80;;;;;;;25.96;50.38;100980.72;5036607;28;20026;-89
2022/06/23 08:12:53;;;;;;;12.47;5.40;;;;;;;26.05;50.21;100988.75;5033817;28;20026;-90
2022/06/23 08:13:43;;;;;;;12.53;5.17;;;;;;;26.15;48.95;100985.44;5033572;28;20284;-91
2022/06/23 08:19:38;;;;;;;10.25;5.55;;;;;;;26.45;49.86;100993.13;5032808;28;20121;-89
2022/06/23 08:22:14;;;;;;;9.35;5.57;;;;;;;26.64;49.46;100980.50;5033208;28;20029;-91
2022/06/23 08:24:48;;;;;;;9.88;5.40;;;;;;;26.69;49.84;100982.94;5035362;28;20024;-91
2022/06/23 08:27:18;;;;;;;9.80;4.88;;;;;;;26.84;50.25;100983.25;5032255;28;20049;-90
2022/06/23 08:29:52;;;;;;;11.05;5.60;;;;;;;27.05;49.53;100989.09;5030166;28;20026;-91
2022/06/23 08:32:19;;;;;;;10.27;5.90;;;;;;;27.05;48.90;100988.31;5020615;28;20022;-91
2022/06/23 08:35:12;;;;;;;9.68;5.70;;;;;;;27.15;49.44;100975.88;5021186;28;20386;-92
2022/06/23 08:37:44;;;;;;;10.90;4.80;;;;;;;27.26;49.62;100976.06;5017684;28;20054;-91
2022/06/23 08:40:23;;;;;;;9.00;5.00;;;;;;;27.31;48.71;100983.97;5018275;28;20296;-94
2022/06/23 08:43:04;;;;;;;7.80;5.25;;;;;;;27.46;48.29;100985.84;5015763;28;20026;-92
2022/06/23 08:45:48;;;;;;;11.45;5.38;;;;;;;27.30;48.62;100972.19;5014849;28;20089;-92
2022/06/23 08:48:27;;;;;;;9.55;4.00;;;;;;;27.40;48.56;100979.03;5015370;28;20048;-91
2022/06/23 08:51:17;;;;;;;12.77;4.22;;;;;;;27.69;47.92;100984.97;5013228;28;20092;-91
2022/06/23 08:53:58;;;;;;;11.45;4.03;;;;;;;27.77;47.14;100983.09;5013827;28;20104;-92
2022/06/23 08:56:39;;;;;;;9.63;4.00;;;;;;;27.80;47.68;100979.59;5016070;28;20122;-91
2022/06/23 08:59:40;;;;;;;7.35;3.92;;;;;;;27.91;46.94;100977.81;5019868;28;20042;-92
2022/06/23 09:02:24;;;;;;;13.88;4.07;;;;;;;27.99;46.86;100977.88;4995035;28;20069;-92
2022/06/23 09:05:08;;;;;;;10.57;4.17;;;;;;;28.23;46.40;100977.41;5012398;28;20072;-92
2022/06/23 09:08:05;;;;;;;10.20;4.10;;;;;;;28.33;46.84;100977.91;5012216;28;20281;-93
2022/06/23 09:10:53;;;;;;;10.02;3.78;;;;;;;28.70;46.42;100980.66;5012407;28;20037;-92
2022/06/23 09:13:46;;;;;;;7.50;3.42;;;;;;;28.71;45.72;100968.47;5015197;28;20030;-92
2022/06/23 09:16:30;;;;;;;8.73;3.70;;;;;;;29.06;45.81;100968.38;5015342;28;20096;-92
2022/06/23 09:19:27;;;;;;;11.38;3.22;;;;;;;28.92;45.20;100974.56;5014004;28;20038;-93
2022/06/23 09:22:12;;;;;;;12.57;3.90;;;;;;;28.90;45.41;100961.19;5017416;28;20022;-92
2022/06/23 09:24:40;;;;;;;7.78;3.30;;;;;;;28.94;44.13;100969.47;5019812;28;20036;-92
2022/06/23 09:27:14;;;;;;;13.60;4.00;;;;;;;29.15;44.88;100969.66;5016305;28;20030;-92
2022/06/23 09:29:56;;;;;;;12.38;4.30;;;;;;;29.13;44.56;100971.19;5016308;28;20026;-92
2022/06/23 09:32:30;;;;;;;7.33;3.37;;;;;;;28.93;45.45;100967.88;5015304;28;20072;-92
2022/06/23 09:35:32;;;;;;;8.80;3.70;;;;;;;29.13;45.70;100963.72;5016022;28;20284;-93
2022/06/23 09:38:19;;;;;;;10.63;4.20;;;;;;;29.19;45.61;100955.88;5015851;28;20036;-92
2022/06/23 09:40:47;;;;;;;10.55;4.05;;;;;;;29.31;44.87;100949.25;4976432;28;20473;-91
2022/06/23 09:43:31;;;;;;;11.65;4.28;;;;;;;29.46;45.81;100950.19;5016211;28;20109;-92
2022/06/23 09:46:09;;;;;;;10.15;4.03;;;;;;;29.69;44.65;100947.13;5017342;28;20494;-92
2022/06/23 09:48:51;;;;;;;11.23;3.92;;;;;;;29.76;44.05;100947.16;5018516;28;20030;-94
2022/06/23 09:51:38;;;;;;;10.13;3.75;;;;;;;29.92;44.64;100955.13;5016133;28;20487;-93
2022/06/23 09:54:42;;;;;;;10.55;3.95;;;;;;;29.90;44.68;100951.94;5015818;28;20041;-93
2022/06/23 09:57:57;;;;;;;12.40;3.88;;;;;;;30.12;44.61;100941.00;5015764;28;20038;-93
2022/06/23 10:00:51;;;;;;;11.20;3.53;;;;;;;30.32;43.26;100946.19;4984641;28;20063;-92
2022/06/23 10:03:50;;;;;;;9.03;4.00;;;;;;;30.47;43.32;100941.50;5015241;28;20347;-93
2022/06/23 10:06:39;;;;;;;14.27;3.70;;;;;;;30.71;43.52;100945.50;5016300;28;20120;-93
2022/06/23 10:09:32;;;;;;;11.02;4.07;;;;;;;30.96;43.24;100942.72;5016232;28;20592;-94
2022/06/23 10:16:03;;;;;;;13.10;4.60;;;;;;;30.95;43.03;100954.97;5015034;28;20120;-93
2022/06/23 10:18:39;;;;;;;17.65;4.43;;;;;;;31.18;41.94;100937.19;5015618;28;20079;-93
2022/06/23 10:21:32;;;;;;;16.50;4.70;;;;;;;31.34;42.81;100945.03;5016186;28;20022;-94
2022/06/23 10:24:22;;;;;;;13.38;4.53;;;;;;;31.53;41.24;100935.53;5015498;28;20036;-95
2022/06/23 10:27:20;;;;;;;13.70;3.95;;;;;;;31.40;41.84;100937.94;5015300;28;20026;-93
2022/06/23 10:30:04;;;;;;;10.90;4.20;;;;;;;31.64;42.26;100932.72;5013931;28;20025;-93
2022/06/23 10:33:34;;;;;;;12.13;5.40;;;;;;;31.32;41.36;100939.13;5014006;28;20293;-92
2022/06/23 10:36:22;;;;;;;8.65;4.35;;;;;;;31.48;41.93;100933.16;4905968;29;20045;-93
2022/06/23 10:39:16;;;;;;;10.75;4.60;;;;;;;32.02;41.44;100924.66;5010748;28;20088;-94
2022/06/23 10:42:11;;;;;;;8.13;4.53;;;;;;;32.21;40.79;100930.88;5015625;28;20026;-93
2022/06/23 10:44:55;;;;;;;12.73;4.43;;;;;;;32.13;40.71;100927.38;5024563;28;20025;-94
2022/06/23 10:48:03;;;;;;;11.27;4.97;;;;;;;32.18;40.33;100929.69;5034131;28;20107;-94
2022/06/23 10:51:02;;;;;;;14.65;4.82;;;;;;;32.27;40.25;100920.19;5029217;28;20026;-93
2022/06/23 10:53:54;;;;;;;13.25;5.30;;;;;;;32.09;41.09;100921.06;5039437;28;20081;-93
2022/06/23 10:56:39;;;;;;;13.48;5.15;;;;;;;32.10;41.31;100913.53;5039889;28;20080;-92
2022/06/23 10:59:21;;;;;;;11.67;4.93;;;;;;;32.18;40.80;100918.63;5036176;28;20041;-92
2022/06/23 11:02:06;;;;;;;12.23;4.63;;;;;;;32.70;40.58;100908.75;5036341;28;20253;-95
2022/06/23 11:04:40;;;;;;;10.75;3.60;;;;;;;33.15;37.97;100912.72;5035427;28;20033;-93
2022/06/23 11:07:23;;;;;;;5.80;4.03;;;;;;;32.96;36.75;100909.34;5038190;28;20037;-94
2022/06/23 11:10:02;;;;;;;10.80;4.15;;;;;;;32.88;37.34;100885.63;5037115;28;20089;-92
2022/06/23 11:13:05;;;;;;;11.80;4.47;;;;;;;32.73;36.88;100902.38;5037628;28;20029;-93
2022/06/23 11:16:10;;;;;;;15.27;4.05;;;;;;;32.51;37.45;100901.78;5018711;28;20018;-93
2022/06/23 11:18:50;;;;;;;9.73;4.13;;;;;;;32.06;37.29;100902.47;5035251;28;20033;-94
2022/06/23 11:21:37;;;;;;;10.48;4.07;;;;;;;31.78;38.22;100909.72;5034918;28;20040;-94
2022/06/23 11:24:15;;;;;;;11.40;3.92;;;;;;;31.38;38.84;100898.78;5026682;28;20033;-93
2022/06/23 11:26:59;;;;;;;9.40;3.63;;;;;;;31.66;38.42;100893.53;5019353;28;20026;-94
2022/06/23 11:30:04;;;;;;;8.23;3.47;;;;;;;31.98;38.68;100904.50;5016092;28;20372;-95
2022/06/23 11:32:59;;;;;;;11.57;3.63;;;;;;;32.10;38.75;100902.44;5015400;28;20041;-94
2022/06/23 11:36:22;;;;;;;17.85;4.35;;;;;;;32.42;38.19;100896.72;5015190;28;20026;-93
2022/06/23 11:39:08;;;;;;;10.98;3.92;;;;;;;32.71;37.66;100899.22;5012571;28;20393;-94
2022/06/23 11:41:51;;;;;;;12.32;4.20;;;;;;;32.25;37.61;100894.81;5013772;28;20505;-94
2022/06/23 11:44:36;;;;;;;8.82;4.25;;;;;;;31.90;37.45;100891.84;5014432;28;20504;-94
2022/06/23 11:47:29;;;;;;;7.88;4.40;;;;;;;32.01;38.37;100898.16;5015246;28;20530;-93
2022/06/23 11:50:13;;;;;;;7.60;4.30;;;;;;;32.36;37.58;100895.56;5014282;28;20026;-94
2022/06/23 11:52:59;;;;;;;7.78;4.18;;;;;;;32.99;37.85;100888.31;5014430;28;20036;-94
2022/06/23 11:55:48;;;;;;;10.97;4.40;;;;;;;33.40;37.58;100889.50;5014252;28;20038;-93
2022/06/23 11:58:32;;;;;;;11.60;4.50;;;;;;;33.36;37.16;100876.44;5013521;28;20296;-93
2022/06/23 12:01:19;;;;;;;8.43;4.68;;;;;;;33.53;37.43;100888.50;5013868;28;20041;-93
2022/06/23 12:04:07;;;;;;;15.48;4.28;;;;;;;32.95;37.07;100887.56;5014027;28;20029;-94
2022/06/23 12:06:50;;;;;;;14.50;4.63;;;;;;;32.71;37.61;100877.03;5016471;28;20037;-94
2022/06/23 12:09:31;;;;;;;8.82;4.10;;;;;;;32.50;38.53;100878.03;5018482;28;20038;-93
2022/06/23 12:12:05;;;;;;;12.55;4.28;;;;;;;32.66;37.26;100874.72;5016802;28;20092;-93
2022/06/23 12:14:37;;;;;;;12.38;4.30;;;;;;;33.28;36.42;100872.13;5014182;28;20419;-94
2022/06/23 12:17:18;;;;;;;8.38;4.40;;;;;;;33.64;35.87;100871.72;5022789;28;20025;-93
2022/06/23 12:20:12;;;;;;;6.90;4.28;;;;;;;33.42;35.77;100870.41;5020479;28;20088;-94
2022/06/23 12:22:45;;;;;;;8.07;3.97;;;;;;;33.21;36.23;100875.00;5014401;28;20030;-93
2022/06/23 12:25:31;;;;;;;9.23;4.13;;;;;;;33.12;36.32;100871.94;5013995;28;20736;-94
2022/06/23 12:28:20;;;;;;;10.68;4.57;;;;;;;33.26;35.88;100880.09;5014206;28;20068;-93
2022/06/23 12:31:07;;;;;;;11.23;4.72;;;;;;;33.50;36.29;100869.13;5013697;28;20041;-93
2022/06/23 12:33:43;;;;;;;9.82;4.53;;;;;;;33.28;36.29;100866.56;5013286;28;20121;-94